DIRECCIÓN GENERAL DE AERONÁUTICA CIVIL
DIRECCIÓN METEOROLÓGICA DE CHILE
INFORMACIÓN METAR Y TAF

FIR PUERTO MONTT

Estación: SCQP
METAR SCQP 311700Z 20006KT 140V240 9999 SCT014 13/10 Q1023=

TAF SCQP 311621Z 3118/0118 16010KT 9999 SCT020 TX15/3119Z TN04/0109Z TEMPO 0102/0106 SCT010 BECMG 0106/0108 CAVOK=

Estación: SCVD
METAR SCVD 311700Z 19004KT 130V230 9999 BKN023 11/07 Q1025=

TAF SCVD 311622Z 3118/0106 160108KT 9999 SCT025 TN14/3119Z TN04/0106Z TEMPO 0101/0105 SCT010=

Estación: SCJO
METAR SCJO 311700Z 15008KT 080V180 9999 FEW020 11/07 Q1027=

TAF SCJO 311623Z 3118/0106 16010KT 9999 SCT025 TX13/3119Z TN04/0106Z TEMPO 0101/0105 SCT010=

Estación: SCTE
METAR SCTE 311700Z 16012KT CAVOK 10/02 Q1028 NOSIG=

TAF SCTE 311624Z 3118/0118 16012KT 9999 FEW025 TX11/3118Z TN02/0110Z TEMPO 0101/0105 8000 SCT008 BECMG 0108/0110 CAVOK=

Estación: SCPQ
METAR SCPQ 311700Z 17008KT 120V210 9999 SCT025 09/04 Q1028=

TAF SCPQ 311630Z 3118/0106 16010KT 9999 FEW020 TX11/3119Z TN03/0106Z=

Estación: SCON
METAR SCON 311700Z 20011KT 9999 FEW030 09/04 Q1030=

TAF SCON NIL=

Estación: SCTN
METAR SCTN 311700Z 21011KT CAVOK 09/05 Q1028=

TAF SCTN 311629Z 3118/0106 20008KT CAVOK TX11/3118Z TN03/0106Z=

Estación: SCFT
METAR SCFT 311700Z 28003KT 240V320 CAVOK 08/00 Q1030=

NIL=

Estación: SCAP
METAR SCAP 311700Z VRB07KT CAVOK 10/M02 Q1036=

NIL=

Estación: SCMK
METAR SCMK 311700Z 20014KT CAVOK 10/03 Q1029=

TAF SCMK 311626Z 3118/0106 18015KT CAVOK TX11/3118Z TN06/0106Z=

Estación: SCAS
METAR SCAS 281900Z 24007KT 7000 -RA SCT023 OVC033 07/07 Q0993=

NIL=

Estación: SCCY
METAR SCCY 311700Z 05003KT CAVOK 08/M01 Q1030=

TAF SCCY 311637Z 3118/0106 33005KT CAVOK TX08/3118Z TNM03/0106Z=

Estación: SCBA
METAR SCBA 311700Z 28011KT CAVOK 06/M03 Q1029=

TAF SCBA 311628Z 3118/0118 28008KT CAVOK TX07/3118Z TNM05/0109Z=

Estación: SCCC
METAR SCCC 311700Z 36007KT CAVOK 10/M06 Q1029=

NIL=

Estación: SCHR
METAR SCHR 311700Z 22007KT CAVOK 07/M01 Q1029=

TAF SCHR 311013Z 3112/0100 30005KT CAVOK TN01/3112Z TX06/3118Z TEMPO 3112/3116 33005KT 9999 SCT070=


Volver